Charles M. Schulz - Sonoma County Airport

Airport
ICAO code: 
KSTS
Summary
ICAO Region: 
NAM
Territory: 
Location: 
Santa Rosa, California,
Coordinates: 
Aerial View: 
38° 30' 34.128" N, 122° 48' 47.781" W
Metar
Observation
KSTS 020932Z AUTO 00000KT 1/2SM FG VV002 06/06 A3010 RMK AO2 T00560056
Station
Santa Rosa, Santa Rosa Sonoma County Airport
Date/Time
2021-12-02 09:32:00
Wind direction
Wind speed
00 kts
Lowest cloud amount
n/a
Temperature
5.6°C
Dew point
5.6°C
Humidity
100%
Weather condition
fog

Description

Charles M. Schulz–Sonoma County Airport is a county-owned public-use airport located 11 km northwest of downtown Santa Rosa, a city in Sonoma County, California.

Climatology

Mediterranean climate (Köppen climate classification Csb) - cool, wet winters and warm, mostly dry summers.

Runways

Designator Length Width Surface Rops
1/19 1525 30 ASP Yes/Yes
14/32 1559 46 ASP Yes/Yes
Airport map: 
Aerial View: 

SKYbrary Partners:

Safety knowledge contributed by: